Strona główna
METAR-TAF:

METAR-TAF

Lotnisko :

Port lotniczy Banjarmasin

Banjarmasin, Indonezja

Szerokość geograficzna: 03-26-32S, Długość geograficzna: 114-45-45E, wysokość: 20 m

Aktualna obserwacja pogody

Raport powstał 2 godziny i 8 minut temu, godzina 05:00 UTC
Wiatr 9 kt od północ
Temperatura 31°C
Wilgotność 75%
Ciśnienie 1007 hPa
Widzialność 10 km lub więcej
Rozproszone chmury na wysokości 1700 ft

METAR: WAOO 280500Z 36009KT 9999 SCT017 31/26 Q1007

czas: 14:08 (07:08 UTC)

Prognoza

Raport powstał 8 godziny i 8 minut temu, godzina 23:00 UTC
Prognoza ważna od 27 godzina 18 UTC do 28 godzina 18 UTC
Wiatr 7 kt od zachodnio-południowy zachód
Widzialność 10 km lub więcej
Rozproszone chmury na wysokości 1700 ft
Przejściowo
od 28 godzina 04 UTC do 28 godzina 08 UTC
Widzialność: 5000 m
deszcz

TAF: WAOO 272300Z 2718/2818 24007KT 9999 SCT017 TEMPO 2804/2808 5000 RA

Obserwacja i prognoza pogody dla ponad 4000 lotnisk (raport METAR i TAF).

Dostępne stacje oznaczono żółtymi i czerwonymi punktami na mapie.

Najedź kursorem aby zobaczyć nazwę stacji.

Kliknij aby zobaczyć obserwacje i prognozy pogody.

Aby zmienić mapę: kliknij na zielony przycisk z czarnym krzyżykiem, aby powiększyć; na zielony przycisk z myślnikiem, aby pomniejszyć; na zielone strzałki, aby przejść do map sąsiednich.


METAR-TAF: